Terminal Aerodrome Forecast
Issued by NWS

Home | Current Version | Previous Version | Text Only | Print | Product List | Glossary On
Versions: 1 2 3 4 5 6 7 8 9 10 11 12 13 14 15 16 17 18 19
938
FTUS43 KEAX 141720
TAFSTJ
TAF
KSTJ 141720Z 1418/1518 02003KT P6SM BKN040
     FM142100 02004KT P6SM OVC025
     FM150400 06006KT 6SM BR VCSH OVC015
     FM150900 07007KT 2SM -FZRA BR OVC007=

USA.gov is the U.S. government's official web portal to all federal, state and local government web resources and services.